createdAt,value
2023-02-27T00:01:10.918Z,96537.24
2023-02-27T00:03:41.229Z,96539.88
2023-02-27T00:06:09.482Z,96537.59
2023-02-27T00:08:38.632Z,96534.92
2023-02-27T00:11:07.431Z,96535.45
2023-02-27T00:13:36.816Z,96534.45
2023-02-27T00:16:06.586Z,96526.67
2023-02-27T00:18:35.335Z,96526.35
2023-02-27T00:21:04.392Z,96528.96
2023-02-27T00:23:33.049Z,96531.99
2023-02-27T00:26:01.577Z,96528.77
2023-02-27T00:28:31.028Z,96525.84
2023-02-27T00:31:00.182Z,96527.83
2023-02-27T00:33:28.925Z,96527.33
2023-02-27T00:36:02.949Z,96531.14
2023-02-27T00:38:32.047Z,96530.70
2023-02-27T00:41:03.684Z,96530.20
2023-02-27T00:43:39.994Z,96523.73
2023-02-27T00:46:09.637Z,96522.92
2023-02-27T00:48:38.547Z,96521.58
2023-02-27T00:51:08.006Z,96518.94
2023-02-27T00:53:36.565Z,96524.73
2023-02-27T00:56:05.283Z,96530.70
2023-02-27T00:58:34.818Z,96534.19
2023-02-27T01:01:03.313Z,96531.52
2023-02-27T01:03:33.152Z,96530.15
2023-02-27T01:06:01.407Z,96530.54
2023-02-27T01:08:29.692Z,96535.89
2023-02-27T01:10:58.185Z,96536.23
2023-02-27T01:13:26.754Z,96535.77
2023-02-27T01:15:56.343Z,96537.18
2023-02-27T01:18:25.412Z,96535.67
2023-02-27T01:20:55.730Z,96533.46
2023-02-27T01:23:24.257Z,96536.56
2023-02-27T01:25:52.971Z,96538.44
2023-02-27T01:28:21.841Z,96537.77
2023-02-27T01:30:50.317Z,96538.67
2023-02-27T01:33:20.189Z,96537.88
2023-02-27T01:35:49.252Z,96540.13
2023-02-27T01:38:18.726Z,96539.27
2023-02-27T01:40:47.375Z,96542.39
2023-02-27T01:43:19.967Z,96536.73
2023-02-27T01:45:50.195Z,96532.11
2023-02-27T01:48:30.936Z,96535.73
2023-02-27T01:51:10.927Z,96533.04
2023-02-27T01:53:42.468Z,96538.16
2023-02-27T01:56:30.562Z,96534.05
2023-02-27T01:59:07.853Z,96538.85
2023-02-27T02:01:36.496Z,96538.15
2023-02-27T02:04:28.768Z,96545.39
2023-02-27T02:07:07.438Z,96541.39
2023-02-27T02:09:40.588Z,96543.94
2023-02-27T02:12:12.072Z,96545.71
2023-02-27T02:14:40.970Z,96542.73
2023-02-27T02:17:26.217Z,96539.72
2023-02-27T02:20:22.344Z,96546.21
2023-02-27T02:23:07.277Z,96553.02
2023-02-27T02:26:29.247Z,96558.10
2023-02-27T02:29:49.910Z,96564.63
2023-02-27T02:32:54.169Z,96571.06
2023-02-27T02:35:44.343Z,96576.55
2023-02-27T02:38:34.609Z,96577.01
2023-02-27T02:41:15.003Z,96577.00
2023-02-27T02:44:09.541Z,96576.65
2023-02-27T02:46:41.111Z,96580.38
2023-02-27T02:49:32.671Z,96575.77
2023-02-27T02:52:10.298Z,96575.52
2023-02-27T02:54:46.418Z,96578.64
2023-02-27T02:57:24.124Z,96581.94
2023-02-27T03:00:08.089Z,96583.95
2023-02-27T03:02:44.239Z,96585.23
2023-02-27T03:05:26.678Z,96587.67
2023-02-27T03:08:03.595Z,96591.15
2023-02-27T03:10:49.360Z,96595.85
2023-02-27T03:13:46.483Z,96594.63
2023-02-27T03:29:10.416Z,96612.98
2023-02-27T03:31:52.097Z,96617.44
2023-02-27T03:34:21.082Z,96616.69
2023-02-27T03:37:06.681Z,96620.77
2023-02-27T03:39:47.434Z,96622.14
2023-02-27T03:42:26.659Z,96616.84
2023-02-27T03:45:26.343Z,96620.86
2023-02-27T03:47:54.640Z,96626.27
2023-02-27T03:50:23.227Z,96627.96
2023-02-27T03:52:52.036Z,96629.39
2023-02-27T03:55:28.680Z,96638.92
2023-02-27T03:57:57.276Z,96643.98
2023-02-27T04:00:26.799Z,96645.48
2023-02-27T04:02:58.506Z,96647.13
2023-02-27T04:05:29.186Z,96645.89
2023-02-27T04:08:40.138Z,96646.88
2023-02-27T04:11:30.623Z,96646.41
2023-02-27T04:14:01.565Z,96651.84
2023-02-27T04:17:11.497Z,96653.02
2023-02-27T04:19:47.509Z,96656.84
2023-02-27T04:22:35.380Z,96662.55
2023-02-27T04:25:24.772Z,96667.92
2023-02-27T04:28:25.669Z,96673.55
2023-02-27T04:31:10.514Z,96675.92
2023-02-27T04:34:13.910Z,96677.89
2023-02-27T04:36:48.202Z,96683.27
2023-02-27T04:39:28.613Z,96680.21
2023-02-27T04:42:11.234Z,96677.13
2023-02-27T04:44:40.460Z,96675.98
2023-02-27T04:47:11.642Z,96683.55
2023-02-27T04:49:54.561Z,96684.07
2023-02-27T04:52:30.000Z,96688.22
2023-02-27T04:55:42.396Z,96691.30
2023-02-27T04:58:12.720Z,96690.12
2023-02-27T05:00:45.386Z,96698.46
2023-02-27T05:03:27.915Z,96709.73
2023-02-27T05:06:00.398Z,96712.56
2023-02-27T05:08:54.042Z,96718.20
2023-02-27T05:11:31.843Z,96719.73
2023-02-27T05:14:09.117Z,96720.52
2023-02-27T05:16:57.151Z,96725.30
2023-02-27T05:19:25.243Z,96729.53
2023-02-27T05:22:21.554Z,96732.77
2023-02-27T05:25:07.740Z,96736.20
2023-02-27T05:27:54.096Z,96738.80
2023-02-27T05:30:36.949Z,96740.06
2023-02-27T05:33:13.831Z,96746.21
2023-02-27T05:35:53.125Z,96753.52
2023-02-27T05:38:31.978Z,96758.02
2023-02-27T05:41:08.961Z,96764.39
2023-02-27T05:43:46.437Z,96769.73
2023-02-27T05:46:24.030Z,96773.98
2023-02-27T05:49:01.740Z,96782.73
2023-02-27T05:51:34.086Z,96789.77
2023-02-27T05:54:08.840Z,96792.23
2023-02-27T05:56:38.498Z,96793.47
2023-02-27T05:59:10.556Z,96795.34
2023-02-27T06:01:38.896Z,96803.90
2023-02-27T06:04:06.887Z,96806.15
2023-02-27T06:06:36.074Z,96808.05
2023-02-27T06:09:04.332Z,96817.59
2023-02-27T06:11:32.555Z,96820.60
2023-02-27T06:14:00.620Z,96821.11
2023-02-27T06:16:29.144Z,96826.00
2023-02-27T06:18:57.891Z,96826.84
2023-02-27T06:21:25.985Z,96826.80
2023-02-27T06:23:54.204Z,96827.16
2023-02-27T06:26:22.640Z,96829.18
2023-02-27T06:28:50.969Z,96829.83
2023-02-27T06:31:19.186Z,96831.39
2023-02-27T06:33:47.136Z,96834.89
2023-02-27T06:36:15.169Z,96836.75
2023-02-27T06:38:43.432Z,96841.52
2023-02-27T06:41:11.802Z,96845.61
2023-02-27T06:43:39.987Z,96850.89
2023-02-27T06:46:08.132Z,96852.63
2023-02-27T06:48:36.366Z,96860.69
2023-02-27T06:51:05.018Z,96860.78
2023-02-27T06:53:33.726Z,96860.88
2023-02-27T06:56:01.945Z,96868.61
2023-02-27T06:58:30.091Z,96872.81
2023-02-27T07:01:01.694Z,96873.97
2023-02-27T07:03:31.245Z,96874.98
2023-02-27T07:05:59.737Z,96877.67
2023-02-27T07:08:28.318Z,96881.01
2023-02-27T07:10:57.526Z,96884.41
2023-02-27T07:13:25.605Z,96885.39
2023-02-27T07:15:54.324Z,96885.75
2023-02-27T07:18:22.877Z,96885.55
2023-02-27T07:20:52.318Z,96888.41
2023-02-27T07:23:20.347Z,96891.84
2023-02-27T07:25:49.386Z,96896.60
2023-02-27T07:28:17.982Z,96902.52
2023-02-27T07:30:47.027Z,96905.81
2023-02-27T07:33:15.524Z,96907.30
2023-02-27T07:35:45.524Z,96911.26
2023-02-27T07:38:14.136Z,96914.61
2023-02-27T07:40:42.535Z,96917.39
2023-02-27T07:43:10.592Z,96918.23
2023-02-27T07:45:38.782Z,96921.88
2023-02-27T07:48:07.190Z,96929.20
2023-02-27T07:50:35.211Z,96935.44
2023-02-27T07:53:05.426Z,96939.98
2023-02-27T07:55:33.627Z,96941.80
2023-02-27T07:58:02.031Z,96947.57
2023-02-27T08:00:31.127Z,96946.20
2023-02-27T08:03:00.604Z,96951.48
2023-02-27T08:05:28.858Z,96949.08
2023-02-27T08:07:56.991Z,96954.25
2023-02-27T08:10:25.069Z,96960.59
2023-02-27T08:12:53.467Z,96964.78
2023-02-27T08:15:21.596Z,96973.23
2023-02-27T08:17:49.919Z,96977.77
2023-02-27T08:20:18.916Z,96984.86
2023-02-27T08:22:46.993Z,96984.57
2023-02-27T08:25:15.066Z,96983.05
2023-02-27T08:27:43.250Z,96983.75
2023-02-27T08:30:12.396Z,96986.00
2023-02-27T08:32:40.734Z,96992.71
2023-02-27T08:35:09.611Z,96996.77
2023-02-27T08:37:38.107Z,97002.36
2023-02-27T08:40:08.229Z,97008.05
2023-02-27T08:42:36.920Z,97020.30
2023-02-27T08:45:05.403Z,97023.36
2023-02-27T08:47:33.499Z,97026.54
2023-02-27T08:50:01.754Z,97026.66
2023-02-27T08:52:30.146Z,97025.51
2023-02-27T08:54:58.228Z,97029.65
2023-02-27T08:57:26.809Z,97034.98
2023-02-27T08:59:55.016Z,97039.82
2023-02-27T09:02:27.038Z,97044.02
2023-02-27T09:04:55.336Z,97043.20
2023-02-27T09:07:23.432Z,97051.15
2023-02-27T09:09:51.586Z,97059.60
2023-02-27T09:12:19.978Z,97061.56
2023-02-27T09:14:48.053Z,97064.23
2023-02-27T09:17:16.234Z,97063.61
2023-02-27T09:19:44.310Z,97066.38
2023-02-27T09:22:12.397Z,97067.59
2023-02-27T09:24:40.566Z,97069.95
2023-02-27T09:27:09.056Z,97069.98
2023-02-27T09:29:36.979Z,97071.04
2023-02-27T09:32:05.154Z,97072.45
2023-02-27T09:34:33.988Z,97074.86
2023-02-27T09:37:02.685Z,97079.71
2023-02-27T09:39:30.759Z,97089.61
2023-02-27T09:42:17.262Z,97099.77
2023-02-27T09:44:59.665Z,97101.92
2023-02-27T09:47:42.262Z,97103.91
2023-02-27T09:50:39.725Z,97100.86
2023-02-27T09:53:24.065Z,97109.79
2023-02-27T09:55:53.061Z,97112.30
2023-02-27T09:58:27.173Z,97118.42
2023-02-27T10:01:04.871Z,97122.19
2023-02-27T10:03:39.141Z,97123.52
2023-02-27T10:06:13.199Z,97127.83
2023-02-27T10:08:47.521Z,97130.91
2023-02-27T10:11:22.883Z,97135.17
2023-02-27T10:14:13.957Z,97136.70
2023-02-27T10:16:43.173Z,97137.22
2023-02-27T10:19:21.375Z,97132.77
2023-02-27T10:21:54.570Z,97138.59
2023-02-27T10:24:27.590Z,97146.30
2023-02-27T10:27:02.679Z,97156.70
2023-02-27T10:29:33.635Z,97158.71
2023-02-27T10:32:07.575Z,97163.47
2023-02-27T10:34:38.787Z,97158.48
2023-02-27T10:37:09.168Z,97154.36
2023-02-27T10:39:55.522Z,97152.64
2023-02-27T10:42:27.898Z,97158.31
2023-02-27T10:44:56.291Z,97168.77
2023-02-27T10:47:26.093Z,97177.17
2023-02-27T10:49:55.589Z,97188.16
2023-02-27T10:52:23.671Z,97190.90
2023-02-27T10:54:53.188Z,97197.77
2023-02-27T10:57:21.362Z,97198.95
2023-02-27T10:59:55.998Z,97200.80
2023-02-27T11:02:35.309Z,97196.33
2023-02-27T11:05:04.724Z,97199.02
2023-02-27T11:07:39.729Z,97200.05
2023-02-27T11:10:10.747Z,97202.98
2023-02-27T11:12:41.218Z,97205.23
2023-02-27T11:15:15.162Z,97210.92
2023-02-27T11:17:44.233Z,97214.02
2023-02-27T11:20:36.150Z,97215.91
2023-02-27T11:23:06.083Z,97221.25
2023-02-27T11:25:34.127Z,97223.80
2023-02-27T11:28:23.627Z,97226.89
2023-02-27T11:31:14.712Z,97226.00
2023-02-27T11:33:56.307Z,97225.84
2023-02-27T11:36:46.210Z,97233.91
2023-02-27T11:39:29.202Z,97234.23
2023-02-27T11:42:05.475Z,97235.57
2023-02-27T11:44:49.930Z,97235.76
2023-02-27T11:47:35.083Z,97233.89
2023-02-27T11:50:22.614Z,97241.46
2023-02-27T11:53:00.104Z,97248.64
2023-02-27T11:55:29.695Z,97254.61
2023-02-27T11:58:25.715Z,97256.63
2023-02-27T12:01:09.860Z,97258.14
2023-02-27T12:03:44.017Z,97262.73
2023-02-27T12:06:22.175Z,97264.80
2023-02-27T12:08:58.960Z,97272.52
2023-02-27T12:11:33.045Z,97280.53
2023-02-27T12:14:09.331Z,97291.83
2023-02-27T12:16:43.491Z,97295.61
2023-02-27T12:19:31.592Z,97297.85
2023-02-27T12:22:05.958Z,97303.80
2023-02-27T12:24:39.401Z,97306.42
2023-02-27T12:27:19.156Z,97311.27
2023-02-27T12:30:02.874Z,97315.08
2023-02-27T12:32:49.147Z,97317.98
2023-02-27T12:35:26.812Z,97319.17
2023-02-27T12:37:56.979Z,97323.63
2023-02-27T12:40:41.525Z,97326.67
2023-02-27T12:43:24.858Z,97337.13
2023-02-27T12:46:16.468Z,97346.95
2023-02-27T12:49:11.684Z,97350.27
2023-02-27T12:51:58.363Z,97357.52
2023-02-27T12:54:55.807Z,97368.36
2023-02-27T12:57:26.757Z,97376.17
2023-02-27T13:00:02.204Z,97377.40
2023-02-27T13:02:45.512Z,97380.02
2023-02-27T13:05:27.308Z,97381.96
2023-02-27T13:08:14.624Z,97384.05
2023-02-27T13:11:11.148Z,97393.09
2023-02-27T13:13:47.590Z,97392.52
2023-02-27T13:16:21.358Z,97388.97
2023-02-27T13:19:23.794Z,97395.38
2023-02-27T13:22:01.483Z,97398.99
2023-02-27T13:24:31.406Z,97404.03
2023-02-27T13:27:16.974Z,97407.64
2023-02-27T13:30:01.644Z,97411.23
2023-02-27T13:32:50.599Z,97413.29
2023-02-27T13:35:44.369Z,97415.73
2023-02-27T13:38:33.502Z,97419.30
2023-02-27T13:41:38.623Z,97423.05
2023-02-27T13:44:22.351Z,97429.88
2023-02-27T13:46:50.460Z,97437.70
2023-02-27T13:49:29.719Z,97436.86
2023-02-27T13:52:02.167Z,97442.55
2023-02-27T13:54:39.937Z,97442.88
2023-02-27T13:57:22.040Z,97450.98
2023-02-27T14:00:05.207Z,97454.45
2023-02-27T14:03:00.586Z,97456.17
2023-02-27T14:05:42.854Z,97453.29
2023-02-27T14:08:34.265Z,97459.23
2023-02-27T14:11:25.074Z,97460.98
2023-02-27T14:13:54.966Z,97459.48
2023-02-27T14:16:41.863Z,97461.44
2023-02-27T14:19:16.058Z,97465.63
2023-02-27T14:22:14.152Z,97468.20
2023-02-27T14:25:01.966Z,97472.10
2023-02-27T14:27:44.714Z,97472.59
2023-02-27T14:30:37.840Z,97475.48
2023-02-27T14:33:14.715Z,97477.36
2023-02-27T14:35:50.481Z,97480.79
2023-02-27T14:38:20.752Z,97485.08
2023-02-27T14:41:14.752Z,97482.33
2023-02-27T14:43:55.426Z,97485.56
2023-02-27T14:46:51.267Z,97487.44
2023-02-27T14:49:23.315Z,97490.38
2023-02-27T14:51:53.223Z,97489.69
2023-02-27T14:54:26.275Z,97490.92
2023-02-27T14:57:06.011Z,97489.53
2023-02-27T14:59:51.219Z,97495.50
2023-02-27T15:02:26.305Z,97492.74
2023-02-27T15:05:18.790Z,97494.41
2023-02-27T15:07:48.405Z,97495.24
2023-02-27T15:10:24.978Z,97496.14
2023-02-27T15:12:53.056Z,97498.74
2023-02-27T15:15:22.049Z,97510.95
2023-02-27T15:17:53.600Z,97516.63
2023-02-27T15:20:34.279Z,97520.27
2023-02-27T15:23:28.843Z,97524.30
2023-02-27T15:25:59.381Z,97529.65
2023-02-27T15:28:32.362Z,97534.34
2023-02-27T15:31:00.698Z,97542.63
2023-02-27T15:33:32.308Z,97547.26
2023-02-27T15:36:01.618Z,97553.10
2023-02-27T15:38:36.453Z,97556.85
2023-02-27T15:41:05.546Z,97554.42
2023-02-27T15:43:33.936Z,97557.02
2023-02-27T15:46:02.417Z,97560.63
2023-02-27T15:48:32.247Z,97567.07
2023-02-27T15:51:03.824Z,97570.27
2023-02-27T15:53:34.215Z,97568.74
2023-02-27T15:56:09.564Z,97571.31
2023-02-27T15:58:45.544Z,97575.59
2023-02-27T16:01:26.678Z,97579.35
2023-02-27T16:04:20.838Z,97584.67
2023-02-27T16:07:03.301Z,97590.65
2023-02-27T16:09:37.202Z,97601.64
2023-02-27T16:12:12.717Z,97604.91
2023-02-27T16:14:43.717Z,97605.27
2023-02-27T16:17:32.508Z,97608.09
2023-02-27T16:20:21.872Z,97616.63
2023-02-27T16:23:03.252Z,97624.05
2023-02-27T16:25:31.934Z,97632.94
2023-02-27T16:28:00.803Z,97629.30
2023-02-27T16:30:29.237Z,97625.70
2023-02-27T16:33:02.105Z,97622.05
2023-02-27T16:35:30.599Z,97622.20
2023-02-27T16:38:02.443Z,97633.73
2023-02-27T16:40:30.712Z,97647.75
2023-02-27T16:42:59.316Z,97653.58
2023-02-27T16:45:29.189Z,97655.08
2023-02-27T16:48:00.336Z,97659.17
2023-02-27T16:50:35.590Z,97654.11
2023-02-27T16:53:04.175Z,97649.36
2023-02-27T16:55:34.039Z,97649.68
2023-02-27T16:58:02.994Z,97657.86
2023-02-27T17:00:34.236Z,97668.64
2023-02-27T17:03:03.086Z,97673.20
2023-02-27T17:05:33.789Z,97671.20
2023-02-27T17:08:02.729Z,97667.06
2023-02-27T17:10:32.291Z,97666.83
2023-02-27T17:13:01.664Z,97676.70
2023-02-27T17:15:30.781Z,97689.16
2023-02-27T17:18:00.802Z,97700.61
2023-02-27T17:20:30.353Z,97705.30
2023-02-27T17:22:59.897Z,97709.22
2023-02-27T17:25:29.639Z,97708.48
2023-02-27T17:27:58.502Z,97705.87
2023-02-27T17:30:27.366Z,97707.59
2023-02-27T17:32:57.699Z,97709.73
2023-02-27T17:35:30.320Z,97710.36
2023-02-27T17:38:00.256Z,97710.83
2023-02-27T17:40:30.353Z,97713.94
2023-02-27T17:42:58.787Z,97718.33
2023-02-27T17:45:27.889Z,97718.19
2023-02-27T17:47:57.068Z,97721.83
2023-02-27T17:50:26.203Z,97722.34
2023-02-27T17:52:55.172Z,97730.48
2023-02-27T17:55:24.306Z,97730.70
2023-02-27T17:57:53.523Z,97725.25
2023-02-27T18:00:23.703Z,97721.50
2023-02-27T18:02:52.391Z,97725.33
2023-02-27T18:05:21.281Z,97727.09
2023-02-27T18:07:49.985Z,97725.96
2023-02-27T18:10:19.720Z,97729.45
2023-02-27T18:12:48.527Z,97732.74
2023-02-27T18:15:18.791Z,97737.26
2023-02-27T18:17:47.894Z,97743.49
2023-02-27T18:20:16.841Z,97742.15
2023-02-27T18:22:45.789Z,97740.47
2023-02-27T18:25:16.652Z,97738.80
2023-02-27T18:27:46.023Z,97740.20
2023-02-27T18:30:15.949Z,97745.27
2023-02-27T18:32:44.598Z,97747.23
2023-02-27T18:35:14.877Z,97750.36
2023-02-27T18:37:43.424Z,97758.59
2023-02-27T18:40:15.438Z,97756.71
2023-02-27T18:42:48.570Z,97758.32
2023-02-27T18:45:17.367Z,97752.85
2023-02-27T18:47:47.990Z,97752.44
2023-02-27T18:50:17.947Z,97750.70
2023-02-27T18:52:47.417Z,97751.91
2023-02-27T18:55:17.705Z,97755.17
2023-02-27T18:57:47.934Z,97764.11
2023-02-27T19:00:22.197Z,97770.14
2023-02-27T19:02:50.806Z,97766.40
2023-02-27T19:05:20.123Z,97764.68
2023-02-27T19:07:49.340Z,97763.51
2023-02-27T19:10:18.307Z,97758.71
2023-02-27T19:12:51.189Z,97754.76
2023-02-27T19:15:20.065Z,97761.77
2023-02-27T19:17:49.058Z,97765.17
2023-02-27T19:20:18.740Z,97768.09
2023-02-27T19:22:47.989Z,97772.37
2023-02-27T19:25:16.707Z,97774.06
2023-02-27T19:27:46.861Z,97778.19
2023-02-27T19:30:15.877Z,97786.27
2023-02-27T19:32:44.684Z,97795.17
2023-02-27T19:35:15.496Z,97794.84
2023-02-27T19:37:54.812Z,97800.50
2023-02-27T19:40:23.577Z,97805.30
2023-02-27T19:42:53.109Z,97803.94
2023-02-27T19:45:22.144Z,97807.05
2023-02-27T19:47:51.113Z,97809.63
2023-02-27T19:50:20.485Z,97808.84
2023-02-27T19:52:49.336Z,97812.40
2023-02-27T19:55:18.690Z,97812.29
2023-02-27T19:57:48.305Z,97811.82
2023-02-27T20:00:17.772Z,97811.49
2023-02-27T20:02:48.970Z,97807.52
2023-02-27T20:05:18.194Z,97811.65
2023-02-27T20:07:48.422Z,97813.00
2023-02-27T20:10:17.099Z,97813.73
2023-02-27T20:12:46.614Z,97814.44
2023-02-27T20:15:15.686Z,97816.31
2023-02-27T20:17:44.832Z,97816.13
2023-02-27T20:20:15.047Z,97816.29
2023-02-27T20:22:45.481Z,97816.13
2023-02-27T20:25:14.106Z,97812.88
2023-02-27T20:27:42.951Z,97815.95
2023-02-27T20:30:12.632Z,97817.53
2023-02-27T20:32:41.520Z,97822.50
2023-02-27T20:35:12.272Z,97823.05
2023-02-27T20:37:41.608Z,97821.86
2023-02-27T20:40:12.376Z,97822.91
2023-02-27T20:42:41.233Z,97819.64
2023-02-27T20:45:10.515Z,97816.90
2023-02-27T20:47:39.857Z,97816.75
2023-02-27T20:50:11.407Z,97820.70
2023-02-27T20:52:40.429Z,97826.17
2023-02-27T20:55:10.038Z,97828.46
2023-02-27T20:57:39.437Z,97827.60
2023-02-27T21:00:12.560Z,97824.35
2023-02-27T21:02:42.302Z,97825.21
2023-02-27T21:05:11.342Z,97823.52
2023-02-27T21:07:39.931Z,97821.84
2023-02-27T21:10:09.775Z,97820.47
2023-02-27T21:12:38.735Z,97811.73
2023-02-27T21:15:10.660Z,97807.42
2023-02-27T21:17:39.584Z,97811.56
2023-02-27T21:20:09.901Z,97805.94
2023-02-27T21:22:39.301Z,97802.67
2023-02-27T21:25:08.760Z,97802.87
2023-02-27T21:27:38.067Z,97801.69
2023-02-27T21:30:07.174Z,97807.20
2023-02-27T21:32:36.265Z,97806.67
2023-02-27T21:35:05.103Z,97807.88
2023-02-27T21:37:34.670Z,97820.23
2023-02-27T21:40:04.785Z,97832.59
2023-02-27T21:42:33.660Z,97840.98
2023-02-27T21:45:02.661Z,97841.39
2023-02-27T21:47:31.245Z,97848.10
2023-02-27T21:49:59.763Z,97849.65
2023-02-27T21:52:31.595Z,97842.61
2023-02-27T21:55:00.998Z,97836.46
2023-02-27T21:57:30.711Z,97837.38
2023-02-27T21:59:59.678Z,97843.79
2023-02-27T22:02:28.433Z,97838.00
2023-02-27T22:04:57.569Z,97849.06
2023-02-27T22:07:26.583Z,97862.16
2023-02-27T22:09:55.899Z,97871.80
2023-02-27T22:12:25.069Z,97878.88
2023-02-27T22:14:54.166Z,97894.14
2023-02-27T22:17:23.253Z,97890.59
2023-02-27T22:19:53.633Z,97875.54
2023-02-27T22:22:22.934Z,97871.07
2023-02-27T22:24:52.623Z,97874.31
2023-02-27T22:27:21.734Z,97876.04
2023-02-27T22:29:50.214Z,97882.35
2023-02-27T22:32:19.704Z,97882.02
2023-02-27T22:34:48.714Z,97874.99
2023-02-27T22:37:20.294Z,97872.17
2023-02-27T22:39:49.244Z,97870.41
2023-02-27T22:42:18.224Z,97869.70
2023-02-27T22:44:48.632Z,97873.46
2023-02-27T22:47:17.623Z,97868.67
2023-02-27T22:49:46.770Z,97868.01
2023-02-27T22:52:15.234Z,97870.45
2023-02-27T22:54:44.244Z,97872.20
2023-02-27T22:57:13.629Z,97871.05
2023-02-27T22:59:43.105Z,97868.56
2023-02-27T23:02:13.148Z,97868.42
2023-02-27T23:04:42.844Z,97868.63
2023-02-27T23:07:11.718Z,97870.04
2023-02-27T23:09:41.744Z,97866.80
2023-02-27T23:12:10.641Z,97865.45
2023-02-27T23:14:39.300Z,97864.10
2023-02-27T23:17:08.895Z,97864.64
2023-02-27T23:19:38.664Z,97868.27
2023-02-27T23:22:07.510Z,97861.74
2023-02-27T23:24:40.663Z,97861.60
2023-02-27T23:27:25.364Z,97865.20
2023-02-27T23:29:55.516Z,97872.39
2023-02-27T23:32:24.782Z,97874.98
2023-02-27T23:34:53.530Z,97886.27
2023-02-27T23:37:22.436Z,97885.59
2023-02-27T23:39:51.285Z,97892.12
2023-02-27T23:42:21.050Z,97894.54
2023-02-27T23:45:08.535Z,97894.06
2023-02-27T23:48:02.577Z,97899.40
2023-02-27T23:50:34.258Z,97899.28
2023-02-27T23:53:05.313Z,97897.55
2023-02-27T23:55:36.401Z,97898.09
2023-02-27T23:58:08.458Z,97897.40
